Time;durP1;ratioP1;P1;durP2;ratioP2;P2;SDS_P1;SDS_P2;PMS_P1;PMS_P2;Temp;Humidity;BMP_temperature;BMP_pressure;BME280_temperature;BME280_humidity;BME280_pressure;Samples;Min_cycle;Max_cycle;Signal;HPM_P1;HPM_P2
2022/11/03 00:01:59;;;;;;;0.20;0.10;;;;;;;;;;5025838;28;20033;-87
2022/11/03 00:04:25;;;;;;;0.20;0.10;;;;;;;;;;5030458;28;20415;-86
2022/11/03 00:06:54;;;;;;;0.20;0.10;;;;;;;;;;5030217;28;20856;-88
2022/11/03 00:09:21;;;;;;;0.20;0.10;;;;;;;;;;5060828;28;20044;-82
2022/11/03 00:11:49;;;;;;;0.20;0.10;;;;;;;;;;5057212;28;20443;-84
2022/11/03 00:14:15;;;;;;;0.20;0.10;;;;;;;;;;5029838;28;20112;-87
2022/11/03 00:16:42;;;;;;;0.20;0.10;;;;;;;;;;5040771;28;20033;-83
2022/11/03 00:19:08;;;;;;;3.30;1.00;;;;;;;;;;5044585;28;20119;-86
2022/11/03 00:21:34;;;;;;;3.13;0.40;;;;;;;;;;5046373;28;20033;-86
2022/11/03 00:24:03;;;;;;;0.20;0.10;;;;;;;;;;5040972;28;20040;-83
2022/11/03 00:26:33;;;;;;;0.20;0.00;;;;;;;;;;5029729;28;20051;-85
2022/11/03 00:29:00;;;;;;;0.20;0.10;;;;;;;;;;5060798;28;20051;-81
2022/11/03 00:31:28;;;;;;;0.20;0.10;;;;;;;;;;5058179;28;20178;-87
2022/11/03 00:33:54;;;;;;;0.20;0.00;;;;;;;;;;5044233;28;20073;-85
2022/11/03 00:36:21;;;;;;;0.20;0.10;;;;;;;;;;5056681;28;20138;-86
2022/11/03 00:38:48;;;;;;;0.20;0.10;;;;;;;;;;5065854;28;20044;-86
2022/11/03 00:41:14;;;;;;;0.20;0.10;;;;;;;;;;5047542;28;20044;-87
2022/11/03 00:43:40;;;;;;;0.20;0.10;;;;;;;;;;5047305;28;20428;-85
2022/11/03 00:46:07;;;;;;;0.20;0.10;;;;;;;;;;5048440;28;20028;-87
2022/11/03 00:48:34;;;;;;;0.20;0.10;;;;;;;;;;5057035;28;20037;-87
2022/11/03 00:51:00;;;;;;;0.20;0.10;;;;;;;;;;5063158;28;20043;-86
2022/11/03 00:53:27;;;;;;;0.20;0.10;;;;;;;;;;5057853;28;20503;-84
2022/11/03 00:55:53;;;;;;;0.20;0.10;;;;;;;;;;5042052;28;20041;-90
2022/11/03 00:58:27;;;;;;;0.20;0.10;;;;;;;;;;5059486;28;20080;-87
2022/11/03 01:01:04;;;;;;;0.20;0.10;;;;;;;;;;5047244;28;20441;-84
2022/11/03 01:03:31;;;;;;;0.20;0.10;;;;;;;;;;5048264;28;20032;-88
2022/11/03 01:08:42;;;;;;;3.30;0.82;;;;;;;;;;5064363;28;20039;-86
2022/11/03 01:13:54;;;;;;;0.20;0.10;;;;;;;;;;5058613;28;20055;-86
2022/11/03 01:16:20;;;;;;;0.20;0.10;;;;;;;;;;5031144;28;20068;-88
2022/11/03 01:18:47;;;;;;;0.20;0.10;;;;;;;;;;5042691;28;20172;-82
2022/11/03 01:21:13;;;;;;;0.20;0.10;;;;;;;;;;5063386;28;20037;-85
2022/11/03 01:23:39;;;;;;;0.20;0.10;;;;;;;;;;5059736;28;20036;-86
2022/11/03 01:26:09;;;;;;;0.20;0.10;;;;;;;;;;5062855;28;20044;-84
2022/11/03 01:28:38;;;;;;;0.20;0.10;;;;;;;;;;5031320;28;20033;-87
2022/11/03 01:31:05;;;;;;;0.20;0.10;;;;;;;;;;5045230;28;20063;-86
2022/11/03 01:33:31;;;;;;;0.20;0.10;;;;;;;;;;5041122;28;20116;-85
2022/11/03 01:36:00;;;;;;;0.20;0.10;;;;;;;;;;5046352;28;20040;-86
2022/11/03 01:38:26;;;;;;;0.20;0.10;;;;;;;;;;5058493;28;20044;-88
2022/11/03 01:40:52;;;;;;;0.20;0.10;;;;;;;;;;5029461;28;20040;-90
2022/11/03 01:43:23;;;;;;;0.20;0.10;;;;;;;;;;5032632;28;20056;-84
2022/11/03 01:45:51;;;;;;;0.20;0.10;;;;;;;;;;5059713;28;20036;-85
2022/11/03 01:48:18;;;;;;;0.20;0.10;;;;;;;;;;5054446;28;20052;-84
2022/11/03 01:50:45;;;;;;;0.20;0.10;;;;;;;;;;5042124;28;20128;-85
2022/11/03 01:53:14;;;;;;;0.40;0.20;;;;;;;;;;5062085;28;20043;-86
2022/11/03 01:55:40;;;;;;;0.20;0.10;;;;;;;;;;5045027;28;20083;-88
2022/11/03 01:58:09;;;;;;;0.20;0.10;;;;;;;;;;5042197;28;20041;-86
2022/11/03 02:00:38;;;;;;;0.20;0.10;;;;;;;;;;5061017;28;20047;-86
2022/11/03 02:03:07;;;;;;;0.20;0.10;;;;;;;;;;5047665;28;20128;-85
2022/11/03 02:05:33;;;;;;;2.95;0.82;;;;;;;;;;5027671;28;20036;-86
2022/11/03 02:08:10;;;;;;;0.20;0.10;;;;;;;;;;5044629;28;20414;-87
2022/11/03 02:10:37;;;;;;;0.20;0.10;;;;;;;;;;5054199;28;20094;-86
2022/11/03 02:13:06;;;;;;;0.20;0.10;;;;;;;;;;5044211;28;20049;-82
2022/11/03 02:15:33;;;;;;;0.20;0.03;;;;;;;;;;5050250;28;20081;-84
2022/11/03 02:18:01;;;;;;;0.20;0.10;;;;;;;;;;5038739;28;20095;-84
2022/11/03 02:20:29;;;;;;;0.88;0.77;;;;;;;;;;5039987;28;20037;-87
2022/11/03 02:23:00;;;;;;;0.20;0.10;;;;;;;;;;5054353;28;20033;-85
2022/11/03 02:25:27;;;;;;;0.20;0.10;;;;;;;;;;5061018;28;20123;-88
2022/11/03 02:27:53;;;;;;;1.85;0.40;;;;;;;;;;5044189;28;20079;-89
2022/11/03 02:30:19;;;;;;;0.20;0.20;;;;;;;;;;5026343;28;20395;-88
2022/11/03 02:32:54;;;;;;;0.20;0.10;;;;;;;;;;5059926;28;20439;-87
2022/11/03 02:35:46;;;;;;;0.20;0.10;;;;;;;;;;5055829;28;20064;-85
2022/11/03 02:38:15;;;;;;;0.20;0.10;;;;;;;;;;5059877;28;20037;-84
2022/11/03 02:40:45;;;;;;;0.20;0.10;;;;;;;;;;5046898;28;20517;-84
2022/11/03 02:43:11;;;;;;;0.20;0.10;;;;;;;;;;5046095;28;20040;-84
2022/11/03 02:45:38;;;;;;;0.20;0.10;;;;;;;;;;5023520;28;20410;-86
2022/11/03 02:48:05;;;;;;;0.20;0.10;;;;;;;;;;5034228;28;20075;-87
2022/11/03 02:50:32;;;;;;;0.20;0.10;;;;;;;;;;5056637;28;20068;-85
2022/11/03 02:52:58;;;;;;;0.20;0.10;;;;;;;;;;5056175;28;20033;-86
2022/11/03 02:55:24;;;;;;;0.20;0.10;;;;;;;;;;5030203;28;20422;-88
2022/11/03 02:57:59;;;;;;;0.20;0.00;;;;;;;;;;5046020;28;20132;-87
2022/11/03 03:00:26;;;;;;;0.20;0.10;;;;;;;;;;5040007;28;20036;-85
2022/11/03 03:02:59;;;;;;;0.20;0.10;;;;;;;;;;5041636;28;20159;-87
2022/11/03 03:05:30;;;;;;;0.20;0.10;;;;;;;;;;5042998;28;20048;-88
2022/11/03 03:07:59;;;;;;;0.20;0.05;;;;;;;;;;5039124;28;20029;-87
2022/11/03 03:10:28;;;;;;;0.20;0.10;;;;;;;;;;5055015;28;20043;-85
2022/11/03 03:13:01;;;;;;;0.20;0.05;;;;;;;;;;5061939;28;20084;-87
2022/11/03 03:15:41;;;;;;;0.20;0.10;;;;;;;;;;5042415;28;20364;-89
2022/11/03 03:18:15;;;;;;;0.20;0.10;;;;;;;;;;5048743;28;20135;-87
2022/11/03 03:20:47;;;;;;;0.20;0.10;;;;;;;;;;5049006;28;20033;-89
2022/11/03 03:23:17;;;;;;;0.20;0.10;;;;;;;;;;5087079;22;20124;-84
2022/11/03 03:25:49;;;;;;;0.20;0.10;;;;;;;;;;5003816;28;20052;-85
2022/11/03 03:28:22;;;;;;;0.20;0.10;;;;;;;;;;4990422;28;20053;-85
2022/11/03 03:30:48;;;;;;;0.20;0.10;;;;;;;;;;5021594;28;20456;-83
2022/11/03 03:33:15;;;;;;;1.23;1.13;;;;;;;;;;4983915;28;20225;-88
2022/11/03 03:35:44;;;;;;;0.20;0.10;;;;;;;;;;4970419;28;20047;-82
2022/11/03 03:38:15;;;;;;;0.20;0.10;;;;;;;;;;4973971;28;20037;-84
2022/11/03 03:40:42;;;;;;;0.20;0.10;;;;;;;;;;4973376;28;20045;-86
2022/11/03 03:43:10;;;;;;;0.20;0.10;;;;;;;;;;4976287;28;20050;-88
2022/11/03 03:45:36;;;;;;;0.20;0.10;;;;;;;;;;5008999;28;20046;-85
2022/11/03 03:48:03;;;;;;;0.20;0.10;;;;;;;;;;4968455;28;20042;-85
2022/11/03 03:50:31;;;;;;;0.20;0.10;;;;;;;;;;4968649;28;20046;-85
2022/11/03 03:52:57;;;;;;;0.20;0.10;;;;;;;;;;4986327;28;20036;-87
2022/11/03 03:55:25;;;;;;;0.20;0.10;;;;;;;;;;4971133;28;20547;-85
2022/11/03 03:57:51;;;;;;;0.20;0.10;;;;;;;;;;4988850;28;20034;-85
2022/11/03 04:00:18;;;;;;;0.20;0.10;;;;;;;;;;4975345;28;20584;-87
2022/11/03 04:02:46;;;;;;;0.20;0.10;;;;;;;;;;4975689;28;20058;-84
2022/11/03 04:05:12;;;;;;;0.20;0.10;;;;;;;;;;4974171;28;20138;-83
2022/11/03 04:07:47;;;;;;;0.22;0.13;;;;;;;;;;4987998;28;20042;-87
2022/11/03 04:10:14;;;;;;;0.20;0.10;;;;;;;;;;4972383;28;20108;-81
2022/11/03 04:23:44;;;;;;;0.20;0.10;;;;;;;;;;4976340;28;20451;-87
2022/11/03 04:26:12;;;;;;;0.20;0.10;;;;;;;;;;4989676;28;20046;-84
2022/11/03 04:28:38;;;;;;;0.20;0.10;;;;;;;;;;4969902;28;20070;-84
2022/11/03 04:31:06;;;;;;;0.20;0.10;;;;;;;;;;4955055;28;20049;-86
2022/11/03 04:33:32;;;;;;;0.20;0.10;;;;;;;;;;4970256;28;20121;-87
2022/11/03 04:35:59;;;;;;;0.20;0.10;;;;;;;;;;4983474;28;20046;-86
2022/11/03 04:38:26;;;;;;;0.20;0.10;;;;;;;;;;4986131;28;20034;-87
2022/11/03 04:40:56;;;;;;;0.20;0.10;;;;;;;;;;4957261;28;20493;-86
2022/11/03 04:43:28;;;;;;;0.20;0.10;;;;;;;;;;4973728;28;20092;-86
2022/11/03 04:45:55;;;;;;;0.20;0.10;;;;;;;;;;4989812;28;20528;-87
2022/11/03 04:48:21;;;;;;;0.20;0.10;;;;;;;;;;4956193;28;20107;-86
2022/11/03 04:50:49;;;;;;;0.20;0.10;;;;;;;;;;4971253;28;20545;-87
2022/11/03 04:53:19;;;;;;;0.20;0.10;;;;;;;;;;4970724;28;20165;-84
2022/11/03 04:55:46;;;;;;;0.20;0.10;;;;;;;;;;4957294;28;20062;-85
2022/11/03 04:58:20;;;;;;;0.20;0.00;;;;;;;;;;4956899;28;20049;-83
2022/11/03 05:00:47;;;;;;;0.20;0.10;;;;;;;;;;4957067;28;20046;-85
2022/11/03 05:03:17;;;;;;;0.20;0.10;;;;;;;;;;4956704;28;20042;-82
2022/11/03 05:05:43;;;;;;;0.20;0.10;;;;;;;;;;4963954;28;20038;-83
2022/11/03 05:08:10;;;;;;;0.20;0.10;;;;;;;;;;4936654;28;20046;-85
2022/11/03 05:10:36;;;;;;;0.40;0.30;;;;;;;;;;4989655;28;20114;-83
2022/11/03 05:13:02;;;;;;;0.20;0.10;;;;;;;;;;4952798;28;20046;-88
2022/11/03 05:15:31;;;;;;;0.20;0.10;;;;;;;;;;4987028;28;20049;-84
2022/11/03 05:17:59;;;;;;;0.20;0.10;;;;;;;;;;4997232;28;20068;-86
2022/11/03 05:20:36;;;;;;;0.20;0.10;;;;;;;;;;4986243;28;20038;-87
2022/11/03 05:23:04;;;;;;;0.20;0.10;;;;;;;;;;4966492;28;21740;-86
2022/11/03 05:25:37;;;;;;;0.20;0.10;;;;;;;;;;4984249;28;20030;-86
2022/11/03 05:28:03;;;;;;;0.45;0.10;;;;;;;;;;4985357;28;20054;-87
2022/11/03 05:30:29;;;;;;;0.20;0.10;;;;;;;;;;4973068;28;20042;-86
2022/11/03 05:32:55;;;;;;;0.20;0.10;;;;;;;;;;4981810;28;20069;-84
2022/11/03 05:35:22;;;;;;;0.20;0.10;;;;;;;;;;4965127;28;20038;-84
2022/11/03 05:37:49;;;;;;;0.20;0.10;;;;;;;;;;4985159;28;20046;-82
2022/11/03 05:40:23;;;;;;;0.20;0.10;;;;;;;;;;4971339;28;20042;-84
2022/11/03 05:42:59;;;;;;;0.20;0.10;;;;;;;;;;4984488;28;20100;-84
2022/11/03 05:45:35;;;;;;;0.20;0.10;;;;;;;;;;4969963;28;20034;-86
2022/11/03 05:48:02;;;;;;;0.20;0.10;;;;;;;;;;4962428;28;20042;-83
2022/11/03 05:50:30;;;;;;;0.20;0.10;;;;;;;;;;4983930;28;20058;-86
2022/11/03 05:53:14;;;;;;;0.20;0.10;;;;;;;;;;4971637;28;20757;-80
2022/11/03 05:55:42;;;;;;;0.20;0.10;;;;;;;;;;4976252;28;20035;-82
2022/11/03 05:58:14;;;;;;;0.20;0.10;;;;;;;;;;4959284;28;20054;-86
2022/11/03 06:00:40;;;;;;;;;;;;;;;;;;4963210;28;20030;-82
2022/11/03 06:03:06;;;;;;;0.20;0.10;;;;;;;;;;4978716;28;19984;-85
2022/11/03 06:05:33;;;;;;;0.20;0.10;;;;;;;;;;4964666;28;20705;-84
2022/11/03 06:08:00;;;;;;;0.20;0.10;;;;;;;;;;4982508;28;20057;-85
2022/11/03 06:10:28;;;;;;;0.20;0.00;;;;;;;;;;4966980;28;20720;-83
2022/11/03 06:12:56;;;;;;;0.20;0.10;;;;;;;;;;4988552;28;20042;-84
2022/11/03 06:15:33;;;;;;;0.20;0.10;;;;;;;;;;4967893;28;20100;-87
2022/11/03 06:18:01;;;;;;;0.20;0.10;;;;;;;;;;4979482;28;20077;-85
2022/11/03 06:20:27;;;;;;;0.20;0.00;;;;;;;;;;4962383;28;20100;-83
2022/11/03 06:22:54;;;;;;;0.20;0.10;;;;;;;;;;4985014;28;20174;-87
2022/11/03 06:25:32;;;;;;;0.20;0.10;;;;;;;;;;4950676;28;20492;-86
2022/11/03 06:28:05;;;;;;;0.20;0.10;;;;;;;;;;4980237;28;20524;-87
2022/11/03 06:30:33;;;;;;;0.20;0.10;;;;;;;;;;4983217;28;20639;-86
2022/11/03 06:33:01;;;;;;;0.20;0.10;;;;;;;;;;4963593;28;20189;-84
2022/11/03 06:35:30;;;;;;;0.20;0.10;;;;;;;;;;5002370;28;20041;-89
2022/11/03 06:37:56;;;;;;;0.20;0.10;;;;;;;;;;4983564;28;20035;-88
2022/11/03 06:40:23;;;;;;;0.20;0.10;;;;;;;;;;4983176;28;20046;-81
2022/11/03 06:42:51;;;;;;;0.20;0.10;;;;;;;;;;4979255;28;20526;-86
2022/11/03 06:45:22;;;;;;;0.20;0.10;;;;;;;;;;4978999;28;20061;-85
2022/11/03 06:47:51;;;;;;;0.20;0.10;;;;;;;;;;5000750;28;20053;-87
2022/11/03 06:50:38;;;;;;;0.20;0.10;;;;;;;;;;4995363;28;20037;-80
2022/11/03 06:53:04;;;;;;;0.20;0.10;;;;;;;;;;4970949;28;20481;-84
2022/11/03 06:55:34;;;;;;;0.20;0.10;;;;;;;;;;4984250;28;20567;-86
2022/11/03 06:58:04;;;;;;;0.20;0.10;;;;;;;;;;4968886;28;20201;-87
2022/11/03 07:00:30;;;;;;;0.20;0.10;;;;;;;;;;5006600;28;20689;-86
2022/11/03 07:03:15;;;;;;;0.20;0.10;;;;;;;;;;4955777;28;20253;-83
2022/11/03 07:05:45;;;;;;;0.20;0.10;;;;;;;;;;4984599;28;20156;-84
2022/11/03 07:08:50;;;;;;;0.20;0.10;;;;;;;;;;4985452;28;20054;-87
2022/11/03 07:11:25;;;;;;;0.20;0.10;;;;;;;;;;4895357;29;20135;-84
2022/11/03 07:13:55;;;;;;;0.20;0.10;;;;;;;;;;4911113;29;20062;-86
2022/11/03 07:16:27;;;;;;;0.20;0.10;;;;;;;;;;4950902;28;20614;-86
2022/11/03 07:18:53;;;;;;;0.20;0.10;;;;;;;;;;4984792;28;20041;-83
2022/11/03 07:21:21;;;;;;;0.20;0.10;;;;;;;;;;4975246;28;20035;-88
2022/11/03 07:23:47;;;;;;;0.20;0.10;;;;;;;;;;4988454;28;20076;-85
2022/11/03 07:26:13;;;;;;;0.20;0.10;;;;;;;;;;4987874;28;20085;-82
2022/11/03 07:28:40;;;;;;;0.20;0.10;;;;;;;;;;4986006;28;20055;-87
2022/11/03 07:31:15;;;;;;;0.20;0.10;;;;;;;;;;4993007;28;20045;-83
2022/11/03 07:33:41;;;;;;;0.20;0.10;;;;;;;;;;4990800;28;20083;-84
2022/11/03 07:36:17;;;;;;;0.20;0.10;;;;;;;;;;4987644;28;19944;-86
2022/11/03 07:38:45;;;;;;;0.20;0.10;;;;;;;;;;4982087;28;20408;-86
2022/11/03 07:41:15;;;;;;;0.20;0.10;;;;;;;;;;4973010;28;20046;-86
2022/11/03 07:43:41;;;;;;;0.20;0.17;;;;;;;;;;4967966;28;20313;-85
2022/11/03 07:46:14;;;;;;;0.20;0.20;;;;;;;;;;4985560;28;20537;-85
2022/11/03 07:48:46;;;;;;;0.20;0.10;;;;;;;;;;4988648;28;20097;-86
2022/11/03 07:51:35;;;;;;;0.20;0.10;;;;;;;;;;4985336;28;20113;-83
2022/11/03 07:54:03;;;;;;;0.20;0.10;;;;;;;;;;4989319;28;20084;-84
2022/11/03 07:56:32;;;;;;;0.20;0.10;;;;;;;;;;4987262;28;20050;-87
2022/11/03 07:59:06;;;;;;;0.20;0.10;;;;;;;;;;4993250;28;20034;-84
2022/11/03 08:01:34;;;;;;;0.20;0.10;;;;;;;;;;4986090;28;20042;-83
2022/11/03 08:04:05;;;;;;;0.40;0.20;;;;;;;;;;4988744;28;20480;-85
2022/11/03 08:06:32;;;;;;;0.20;0.00;;;;;;;;;;4986161;28;20496;-84
2022/11/03 08:08:58;;;;;;;0.20;0.10;;;;;;;;;;4973916;28;20038;-88
2022/11/03 08:11:24;;;;;;;0.20;0.10;;;;;;;;;;4967493;28;20090;-89
2022/11/03 08:13:51;;;;;;;0.20;0.10;;;;;;;;;;4987989;28;20034;-85
2022/11/03 08:16:17;;;;;;;0.20;0.10;;;;;;;;;;4974979;28;20038;-83
2022/11/03 08:18:43;;;;;;;0.20;0.10;;;;;;;;;;4984907;28;20042;-88
2022/11/03 08:21:09;;;;;;;0.20;0.10;;;;;;;;;;4968343;28;20038;-88
2022/11/03 08:23:35;;;;;;;0.20;0.10;;;;;;;;;;4963011;28;20054;-84
2022/11/03 08:26:04;;;;;;;0.20;0.10;;;;;;;;;;4978246;28;20042;-88
2022/11/03 08:28:32;;;;;;;0.20;0.17;;;;;;;;;;4965427;28;20117;-85
2022/11/03 08:31:03;;;;;;;0.20;0.10;;;;;;;;;;4983373;28;20594;-83
2022/11/03 08:33:31;;;;;;;0.20;0.10;;;;;;;;;;4951689;28;20141;-84
2022/11/03 08:35:57;;;;;;;0.20;0.10;;;;;;;;;;4966336;28;20300;-86
2022/11/03 08:38:23;;;;;;;0.20;0.10;;;;;;;;;;4951734;28;21929;-87
2022/11/03 08:40:49;;;;;;;0.20;0.10;;;;;;;;;;4946539;28;20030;-85
2022/11/03 08:43:18;;;;;;;0.20;0.10;;;;;;;;;;4979809;28;20489;-91
2022/11/03 08:45:44;;;;;;;0.20;0.10;;;;;;;;;;4981124;28;20041;-85
2022/11/03 08:48:11;;;;;;;0.20;0.10;;;;;;;;;;4952735;28;20462;-84
2022/11/03 08:50:37;;;;;;;0.20;0.10;;;;;;;;;;4945016;28;20042;-87
2022/11/03 08:53:03;;;;;;;0.20;0.10;;;;;;;;;;4977552;28;21206;-83
2022/11/03 08:55:29;;;;;;;0.20;0.10;;;;;;;;;;4960843;28;20069;-86
2022/11/03 08:57:55;;;;;;;0.20;0.10;;;;;;;;;;4980981;28;20121;-86
2022/11/03 09:00:21;;;;;;;0.20;0.10;;;;;;;;;;4997043;28;20107;-87
2022/11/03 09:02:47;;;;;;;0.20;0.10;;;;;;;;;;4973448;28;20121;-85
2022/11/03 09:05:13;;;;;;;0.20;0.08;;;;;;;;;;4983240;28;20054;-84
2022/11/03 09:07:40;;;;;;;0.20;0.10;;;;;;;;;;4983888;28;20039;-85
2022/11/03 09:10:07;;;;;;;0.20;0.10;;;;;;;;;;4981527;28;20046;-83
2022/11/03 09:12:33;;;;;;;0.20;0.00;;;;;;;;;;4979929;28;21866;-87
2022/11/03 09:14:59;;;;;;;0.35;0.20;;;;;;;;;;4966337;28;20085;-83
2022/11/03 09:17:25;;;;;;;0.20;0.10;;;;;;;;;;4969562;28;20137;-87
2022/11/03 09:19:51;;;;;;;0.20;0.10;;;;;;;;;;4954045;28;20049;-88
2022/11/03 09:22:17;;;;;;;0.20;0.10;;;;;;;;;;4995313;28;20133;-87
2022/11/03 09:24:43;;;;;;;0.20;0.10;;;;;;;;;;4992365;23;20072;-81
2022/11/03 09:27:12;;;;;;;0.20;0.15;;;;;;;;;;5007198;28;20142;-81
2022/11/03 09:29:40;;;;;;;0.20;0.10;;;;;;;;;;5024186;28;20041;-82
2022/11/03 09:32:16;;;;;;;0.20;0.10;;;;;;;;;;5016955;28;20140;-85
2022/11/03 09:35:05;;;;;;;0.20;0.10;;;;;;;;;;4998314;28;20471;-81
2022/11/03 09:37:40;;;;;;;0.20;0.00;;;;;;;;;;4967380;28;20034;-84
2022/11/03 09:40:08;;;;;;;0.20;0.10;;;;;;;;;;5003463;28;20496;-84
2022/11/03 09:42:58;;;;;;;0.20;0.10;;;;;;;;;;5005078;28;20064;-82
2022/11/03 09:48:31;;;;;;;0.20;0.10;;;;;;;;;;4989567;28;20101;-85
2022/11/03 09:51:00;;;;;;;0.20;0.10;;;;;;;;;;5006979;28;20054;-84
2022/11/03 09:53:44;;;;;;;0.20;0.00;;;;;;;;;;4978779;28;20041;-82
2022/11/03 09:56:10;;;;;;;0.20;0.10;;;;;;;;;;4981658;28;20055;-81
2022/11/03 09:58:46;;;;;;;0.20;0.00;;;;;;;;;;5005690;28;20049;-82
2022/11/03 10:01:12;;;;;;;0.20;0.10;;;;;;;;;;5005121;28;20431;-83
2022/11/03 10:03:59;;;;;;;0.20;0.10;;;;;;;;;;5009797;28;20085;-80
2022/11/03 10:06:25;;;;;;;0.20;0.10;;;;;;;;;;5028911;28;20041;-79
2022/11/03 10:08:51;;;;;;;0.20;0.10;;;;;;;;;;5008552;28;20048;-81
2022/11/03 10:11:23;;;;;;;0.20;0.10;;;;;;;;;;5021653;28;20053;-84
2022/11/03 10:13:52;;;;;;;5.93;0.32;;;;;;;;;;5004977;28;20041;-82
2022/11/03 10:16:25;;;;;;;0.20;0.10;;;;;;;;;;5007660;28;20488;-80
2022/11/03 10:18:54;;;;;;;1.20;1.10;;;;;;;;;;5002630;28;20049;-81
2022/11/03 10:21:25;;;;;;;0.20;0.10;;;;;;;;;;4973402;28;20517;-79
2022/11/03 10:23:51;;;;;;;0.20;0.10;;;;;;;;;;5002190;28;20541;-81
2022/11/03 10:26:21;;;;;;;0.20;0.10;;;;;;;;;;4992884;28;20038;-81
2022/11/03 10:29:10;;;;;;;0.20;0.10;;;;;;;;;;5009205;28;20124;-84
2022/11/03 10:31:37;;;;;;;0.20;0.10;;;;;;;;;;4991027;28;20143;-80
2022/11/03 10:34:42;;;;;;;0.20;0.10;;;;;;;;;;4994535;28;20046;-81
2022/11/03 10:37:08;;;;;;;0.20;0.10;;;;;;;;;;4938328;28;20031;-81
2022/11/03 10:39:34;;;;;;;0.20;0.10;;;;;;;;;;4974587;28;20441;-83
2022/11/03 10:42:00;;;;;;;0.20;0.10;;;;;;;;;;4975400;28;20437;-82
2022/11/03 10:44:30;;;;;;;0.20;0.17;;;;;;;;;;4990202;28;20108;-80
2022/11/03 10:47:00;;;;;;;0.20;0.10;;;;;;;;;;4998259;28;20594;-84
2022/11/03 10:49:28;;;;;;;0.20;0.10;;;;;;;;;;4973420;28;20034;-80
2022/11/03 10:51:59;;;;;;;0.20;0.10;;;;;;;;;;4993829;28;20050;-81
2022/11/03 10:54:25;;;;;;;0.20;0.10;;;;;;;;;;4993802;28;21040;-82
2022/11/03 10:56:52;;;;;;;0.20;0.10;;;;;;;;;;5005480;28;20510;-80
2022/11/03 10:59:30;;;;;;;0.20;0.10;;;;;;;;;;5005168;28;20100;-81
2022/11/03 11:01:57;;;;;;;0.20;0.10;;;;;;;;;;5002326;28;20034;-81
2022/11/03 11:04:23;;;;;;;0.35;0.35;;;;;;;;;;5008251;28;20041;-82
2022/11/03 11:06:49;;;;;;;0.20;0.10;;;;;;;;;;5005492;28;20045;-82
2022/11/03 11:09:26;;;;;;;0.20;0.10;;;;;;;;;;4990759;28;20037;-81
2022/11/03 11:11:58;;;;;;;0.20;0.10;;;;;;;;;;5012858;28;20127;-82
2022/11/03 11:14:27;;;;;;;0.20;0.10;;;;;;;;;;5008702;28;20048;-83
2022/11/03 11:16:53;;;;;;;0.20;0.10;;;;;;;;;;5008977;28;20100;-84
2022/11/03 11:19:21;;;;;;;0.20;0.10;;;;;;;;;;5013511;28;20058;-82
2022/11/03 11:21:48;;;;;;;0.20;0.10;;;;;;;;;;5009144;28;20038;-81
2022/11/03 11:24:34;;;;;;;0.20;0.10;;;;;;;;;;5014726;28;20045;-83
2022/11/03 11:27:00;;;;;;;0.20;0.10;;;;;;;;;;5008089;28;20073;-83
2022/11/03 11:29:29;;;;;;;0.20;0.05;;;;;;;;;;5008600;28;20357;-83
2022/11/03 11:31:55;;;;;;;0.20;0.10;;;;;;;;;;5006201;28;20408;-81
2022/11/03 11:34:22;;;;;;;0.20;0.10;;;;;;;;;;5022784;28;20121;-82
2022/11/03 11:36:54;;;;;;;0.20;0.10;;;;;;;;;;5016353;28;20049;-85
2022/11/03 11:39:23;;;;;;;0.20;0.10;;;;;;;;;;5019487;28;20100;-82
2022/11/03 11:42:08;;;;;;;0.20;0.10;;;;;;;;;;5013426;28;20041;-82
2022/11/03 11:45:05;;;;;;;0.20;0.10;;;;;;;;;;5015525;28;21305;-81
2022/11/03 11:47:34;;;;;;;0.20;0.10;;;;;;;;;;5013330;28;20049;-81
2022/11/03 11:50:08;;;;;;;0.20;0.10;;;;;;;;;;4998104;28;20050;-82
2022/11/03 11:52:53;;;;;;;0.20;0.10;;;;;;;;;;4996893;28;20052;-82
2022/11/03 11:55:25;;;;;;;0.20;0.00;;;;;;;;;;5010335;28;20038;-81
2022/11/03 11:57:55;;;;;;;0.20;0.10;;;;;;;;;;5012110;28;20045;-82
2022/11/03 12:00:23;;;;;;;0.20;0.10;;;;;;;;;;5016846;28;20509;-82
2022/11/03 12:02:50;;;;;;;0.20;0.10;;;;;;;;;;5016386;28;20041;-84
2022/11/03 12:05:20;;;;;;;0.20;0.10;;;;;;;;;;4981759;28;20045;-82
2022/11/03 12:07:47;;;;;;;0.20;0.10;;;;;;;;;;4996383;28;20516;-83
2022/11/03 12:10:16;;;;;;;0.20;0.10;;;;;;;;;;5014114;28;20042;-81
2022/11/03 12:12:42;;;;;;;0.20;0.10;;;;;;;;;;5036774;28;20064;-81
2022/11/03 12:15:27;;;;;;;0.20;0.10;;;;;;;;;;4987481;28;20072;-80
2022/11/03 12:17:53;;;;;;;0.20;0.10;;;;;;;;;;5020158;28;20069;-81
2022/11/03 12:20:35;;;;;;;0.20;0.10;;;;;;;;;;5014180;28;20045;-81
2022/11/03 12:23:01;;;;;;;0.20;0.10;;;;;;;;;;4995767;28;20072;-82
2022/11/03 12:25:35;;;;;;;0.20;0.10;;;;;;;;;;5015474;28;20049;-82
2022/11/03 12:28:01;;;;;;;0.20;0.10;;;;;;;;;;5012652;28;20041;-81
2022/11/03 12:30:27;;;;;;;0.20;0.10;;;;;;;;;;5018126;28;20100;-83
2022/11/03 12:32:53;;;;;;;0.20;0.10;;;;;;;;;;4998585;28;20049;-81
2022/11/03 12:35:19;;;;;;;0.20;0.10;;;;;;;;;;5028948;28;20038;-83
2022/11/03 12:37:46;;;;;;;0.20;0.10;;;;;;;;;;5016007;28;20072;-81
2022/11/03 12:40:13;;;;;;;0.20;0.10;;;;;;;;;;5018800;28;20056;-83
2022/11/03 12:42:42;;;;;;;0.20;0.10;;;;;;;;;;4996731;28;20046;-85
2022/11/03 12:45:08;;;;;;;0.20;0.00;;;;;;;;;;5013237;28;20053;-82
2022/11/03 12:47:34;;;;;;;0.20;0.10;;;;;;;;;;5010451;28;20188;-84
2022/11/03 12:50:00;;;;;;;0.20;0.10;;;;;;;;;;5013472;28;20049;-83
2022/11/03 12:52:26;;;;;;;0.20;0.10;;;;;;;;;;5013149;28;20053;-82
2022/11/03 12:54:52;;;;;;;0.20;0.10;;;;;;;;;;5015767;28;20041;-83
2022/11/03 12:57:21;;;;;;;0.20;0.10;;;;;;;;;;5033664;28;20121;-82
2022/11/03 12:59:47;;;;;;;0.20;0.10;;;;;;;;;;5015585;28;20072;-81
2022/11/03 13:02:13;;;;;;;0.20;0.10;;;;;;;;;;5013309;28;20129;-81
2022/11/03 13:04:43;;;;;;;0.20;0.10;;;;;;;;;;5017397;28;20042;-81
2022/11/03 13:07:09;;;;;;;0.20;0.10;;;;;;;;;;4980778;28;20065;-83
2022/11/03 13:09:38;;;;;;;0.20;0.10;;;;;;;;;;4980692;28;20137;-83
2022/11/03 13:14:49;;;;;;;0.20;0.10;;;;;;;;;;5014410;28;20049;-81
2022/11/03 13:17:15;;;;;;;0.20;0.10;;;;;;;;;;5000754;28;20137;-82
2022/11/03 13:19:41;;;;;;;0.20;0.10;;;;;;;;;;4997846;28;20038;-81
2022/11/03 13:22:07;;;;;;;0.20;0.10;;;;;;;;;;4994172;28;20088;-82
2022/11/03 13:24:33;;;;;;;0.20;0.10;;;;;;;;;;5013060;28;20045;-83
2022/11/03 13:27:00;;;;;;;0.20;0.10;;;;;;;;;;5014189;28;20045;-81
2022/11/03 13:29:26;;;;;;;0.20;0.10;;;;;;;;;;5015468;28;20049;-81
2022/11/03 13:31:52;;;;;;;0.20;0.10;;;;;;;;;;5018951;28;20085;-80
2022/11/03 13:34:18;;;;;;;0.20;0.10;;;;;;;;;;5012217;28;20069;-81
2022/11/03 13:36:44;;;;;;;1.45;1.10;;;;;;;;;;5021296;28;20176;-82
2022/11/03 13:39:11;;;;;;;0.20;0.10;;;;;;;;;;5018181;28;20089;-82
2022/11/03 13:41:38;;;;;;;0.20;0.10;;;;;;;;;;5013765;28;20057;-83
2022/11/03 13:44:04;;;;;;;0.20;0.10;;;;;;;;;;5010647;28;20048;-82
2022/11/03 13:46:32;;;;;;;0.20;0.10;;;;;;;;;;5012662;28;20096;-84
2022/11/03 13:48:59;;;;;;;0.20;0.10;;;;;;;;;;4982911;28;20408;-84
2022/11/03 13:51:25;;;;;;;0.20;0.10;;;;;;;;;;5012823;28;20043;-83
2022/11/03 13:53:51;;;;;;;0.20;0.10;;;;;;;;;;5030573;28;20042;-83
2022/11/03 13:56:20;;;;;;;0.20;0.10;;;;;;;;;;4991596;28;20463;-83
2022/11/03 13:58:46;;;;;;;0.20;0.10;;;;;;;;;;5013357;28;20148;-82
2022/11/03 14:01:12;;;;;;;0.20;0.10;;;;;;;;;;4992464;28;20180;-81
2022/11/03 14:03:38;;;;;;;0.20;0.10;;;;;;;;;;5006329;28;20049;-80
2022/11/03 14:06:04;;;;;;;0.20;0.10;;;;;;;;;;5012443;28;20050;-81
2022/11/03 14:08:30;;;;;;;0.20;0.10;;;;;;;;;;5013921;28;20064;-81
2022/11/03 14:10:56;;;;;;;0.20;0.10;;;;;;;;;;5011349;28;20042;-81
2022/11/03 14:13:22;;;;;;;3.53;0.28;;;;;;;;;;4999095;28;22218;-82
2022/11/03 14:15:48;;;;;;;0.20;0.10;;;;;;;;;;5012364;28;21820;-82
2022/11/03 14:18:14;;;;;;;0.20;0.10;;;;;;;;;;4997682;28;20051;-83
2022/11/03 14:20:40;;;;;;;0.20;0.10;;;;;;;;;;4984418;28;20033;-80
2022/11/03 14:23:06;;;;;;;0.20;0.10;;;;;;;;;;5017505;28;20553;-82
2022/11/03 14:25:32;;;;;;;0.20;0.10;;;;;;;;;;4983162;28;20048;-81
2022/11/03 14:27:59;;;;;;;0.20;0.10;;;;;;;;;;4981591;28;20099;-82
2022/11/03 14:30:25;;;;;;;0.20;0.10;;;;;;;;;;4978870;28;20083;-82
2022/11/03 14:32:51;;;;;;;0.20;0.10;;;;;;;;;;5011828;28;20765;-81
2022/11/03 14:35:17;;;;;;;0.20;0.10;;;;;;;;;;4996209;28;20304;-80
2022/11/03 14:37:43;;;;;;;0.20;0.10;;;;;;;;;;5011428;28;20508;-83
2022/11/03 14:42:02;;;;;;;0.20;0.10;;;;;;;;;;5000290;28;20037;-81
2022/11/03 14:42:55;;;;;;;0.20;0.10;;;;;;;;;;5012942;28;20037;-79
2022/11/03 14:45:21;;;;;;;0.20;0.10;;;;;;;;;;4973980;28;20053;-82
2022/11/03 14:47:47;;;;;;;0.20;0.10;;;;;;;;;;5017160;28;20388;-81
2022/11/03 14:50:14;;;;;;;0.20;0.10;;;;;;;;;;4996460;28;20122;-83
2022/11/03 14:52:40;;;;;;;0.20;0.10;;;;;;;;;;4974998;28;20029;-80
2022/11/03 14:55:06;;;;;;;0.20;0.00;;;;;;;;;;5008687;28;20073;-80
2022/11/03 14:57:32;;;;;;;0.20;0.10;;;;;;;;;;5013471;28;20073;-83
2022/11/03 14:59:58;;;;;;;0.20;0.10;;;;;;;;;;4977697;28;20034;-82
2022/11/03 15:02:24;;;;;;;0.20;0.10;;;;;;;;;;4993684;28;20077;-82
2022/11/03 15:04:50;;;;;;;0.20;0.10;;;;;;;;;;5013145;28;20108;-81
2022/11/03 15:07:16;;;;;;;0.20;0.10;;;;;;;;;;5016128;28;20100;-82
2022/11/03 15:09:42;;;;;;;0.20;0.10;;;;;;;;;;5015580;28;20048;-81
2022/11/03 15:12:08;;;;;;;0.20;0.10;;;;;;;;;;5005584;28;20112;-80
2022/11/03 15:14:34;;;;;;;0.20;0.10;;;;;;;;;;5015887;28;20044;-81
2022/11/03 15:17:00;;;;;;;0.20;0.08;;;;;;;;;;5021061;28;20041;-84